sensor_id;sensor_type;location;lat;lon;timestamp;P1;durP1;ratioP1;P2;durP2;ratioP2
43124;SDS011;49182;50.788;7.318;2022-08-21T00:00:25;8.52;;;3.60;;
43124;SDS011;49182;50.788;7.318;2022-08-21T00:02:54;8.13;;;3.72;;
43124;SDS011;49182;50.788;7.318;2022-08-21T00:05:23;7.20;;;3.58;;
43124;SDS011;49182;50.788;7.318;2022-08-21T00:07:52;6.80;;;3.50;;
43124;SDS011;49182;50.788;7.318;2022-08-21T00:10:20;7.93;;;3.65;;
43124;SDS011;49182;50.788;7.318;2022-08-21T00:12:47;7.70;;;3.75;;
43124;SDS011;49182;50.788;7.318;2022-08-21T00:15:16;7.10;;;3.17;;
43124;SDS011;49182;50.788;7.318;2022-08-21T00:17:45;7.95;;;3.28;;
43124;SDS011;49182;50.788;7.318;2022-08-21T00:20:13;6.32;;;3.70;;
43124;SDS011;49182;50.788;7.318;2022-08-21T00:22:41;6.50;;;3.45;;
43124;SDS011;49182;50.788;7.318;2022-08-21T00:25:10;11.30;;;4.07;;
43124;SDS011;49182;50.788;7.318;2022-08-21T00:27:37;7.28;;;4.03;;
43124;SDS011;49182;50.788;7.318;2022-08-21T00:30:05;7.18;;;3.58;;
43124;SDS011;49182;50.788;7.318;2022-08-21T00:32:33;6.15;;;3.45;;
43124;SDS011;49182;50.788;7.318;2022-08-21T00:37:32;7.07;;;3.78;;
43124;SDS011;49182;50.788;7.318;2022-08-21T00:40:00;8.43;;;3.90;;
43124;SDS011;49182;50.788;7.318;2022-08-21T00:42:29;6.53;;;3.28;;
43124;SDS011;49182;50.788;7.318;2022-08-21T00:44:56;9.10;;;3.80;;
43124;SDS011;49182;50.788;7.318;2022-08-21T00:47:22;8.45;;;3.30;;
43124;SDS011;49182;50.788;7.318;2022-08-21T00:49:49;7.32;;;3.60;;
43124;SDS011;49182;50.788;7.318;2022-08-21T00:52:17;6.82;;;3.50;;
43124;SDS011;49182;50.788;7.318;2022-08-21T00:54:48;7.20;;;3.55;;
43124;SDS011;49182;50.788;7.318;2022-08-21T00:57:17;7.10;;;3.67;;
43124;SDS011;49182;50.788;7.318;2022-08-21T00:59:51;7.30;;;3.70;;
43124;SDS011;49182;50.788;7.318;2022-08-21T01:02:22;6.50;;;3.25;;
43124;SDS011;49182;50.788;7.318;2022-08-21T01:04:48;9.98;;;4.97;;
43124;SDS011;49182;50.788;7.318;2022-08-21T01:07:15;5.95;;;3.53;;
43124;SDS011;49182;50.788;7.318;2022-08-21T01:09:45;8.93;;;3.90;;
43124;SDS011;49182;50.788;7.318;2022-08-21T01:12:13;8.57;;;3.72;;
43124;SDS011;49182;50.788;7.318;2022-08-21T01:14:41;7.80;;;3.90;;
43124;SDS011;49182;50.788;7.318;2022-08-21T01:17:09;7.60;;;4.30;;
43124;SDS011;49182;50.788;7.318;2022-08-21T01:19:37;7.45;;;3.88;;
43124;SDS011;49182;50.788;7.318;2022-08-21T01:22:06;11.60;;;3.63;;
43124;SDS011;49182;50.788;7.318;2022-08-21T01:24:33;9.65;;;3.72;;
43124;SDS011;49182;50.788;7.318;2022-08-21T01:26:59;8.82;;;3.80;;
43124;SDS011;49182;50.788;7.318;2022-08-21T01:29:30;8.65;;;4.70;;
43124;SDS011;49182;50.788;7.318;2022-08-21T01:32:04;6.97;;;4.07;;
43124;SDS011;49182;50.788;7.318;2022-08-21T01:34:33;7.85;;;4.05;;
43124;SDS011;49182;50.788;7.318;2022-08-21T01:37:02;7.78;;;3.78;;
43124;SDS011;49182;50.788;7.318;2022-08-21T01:39:30;8.07;;;3.97;;
43124;SDS011;49182;50.788;7.318;2022-08-21T01:41:57;7.45;;;4.10;;
43124;SDS011;49182;50.788;7.318;2022-08-21T01:44:24;11.20;;;4.40;;
43124;SDS011;49182;50.788;7.318;2022-08-21T01:46:52;7.68;;;4.38;;
43124;SDS011;49182;50.788;7.318;2022-08-21T01:49:19;8.35;;;4.25;;
43124;SDS011;49182;50.788;7.318;2022-08-21T01:51:46;9.40;;;4.05;;
43124;SDS011;49182;50.788;7.318;2022-08-21T01:54:13;8.85;;;3.63;;
43124;SDS011;49182;50.788;7.318;2022-08-21T01:56:41;10.32;;;4.10;;
43124;SDS011;49182;50.788;7.318;2022-08-21T01:59:12;8.07;;;4.10;;
43124;SDS011;49182;50.788;7.318;2022-08-21T02:01:38;9.88;;;4.25;;
43124;SDS011;49182;50.788;7.318;2022-08-21T02:04:05;7.03;;;3.65;;
43124;SDS011;49182;50.788;7.318;2022-08-21T02:06:32;8.25;;;4.32;;
43124;SDS011;49182;50.788;7.318;2022-08-21T02:08:59;7.18;;;4.25;;
43124;SDS011;49182;50.788;7.318;2022-08-21T02:11:26;6.72;;;3.83;;
43124;SDS011;49182;50.788;7.318;2022-08-21T02:13:54;7.00;;;3.67;;
43124;SDS011;49182;50.788;7.318;2022-08-21T02:16:21;8.98;;;3.92;;
43124;SDS011;49182;50.788;7.318;2022-08-21T02:18:47;10.93;;;4.00;;
43124;SDS011;49182;50.788;7.318;2022-08-21T02:21:14;8.60;;;4.38;;
43124;SDS011;49182;50.788;7.318;2022-08-21T02:23:41;7.25;;;4.13;;
43124;SDS011;49182;50.788;7.318;2022-08-21T02:26:07;8.50;;;4.40;;
43124;SDS011;49182;50.788;7.318;2022-08-21T02:28:35;10.02;;;4.53;;
43124;SDS011;49182;50.788;7.318;2022-08-21T02:31:04;8.27;;;3.90;;
43124;SDS011;49182;50.788;7.318;2022-08-21T02:33:31;9.43;;;4.03;;
43124;SDS011;49182;50.788;7.318;2022-08-21T02:35:58;8.65;;;4.50;;
43124;SDS011;49182;50.788;7.318;2022-08-21T02:38:26;10.55;;;4.47;;
43124;SDS011;49182;50.788;7.318;2022-08-21T02:40:54;9.55;;;4.40;;
43124;SDS011;49182;50.788;7.318;2022-08-21T02:43:22;8.35;;;4.30;;
43124;SDS011;49182;50.788;7.318;2022-08-21T02:45:50;7.40;;;4.38;;
43124;SDS011;49182;50.788;7.318;2022-08-21T02:48:20;9.82;;;4.38;;
43124;SDS011;49182;50.788;7.318;2022-08-21T02:50:52;9.73;;;3.95;;
43124;SDS011;49182;50.788;7.318;2022-08-21T02:53:20;7.22;;;3.78;;
43124;SDS011;49182;50.788;7.318;2022-08-21T02:55:48;6.72;;;3.85;;
43124;SDS011;49182;50.788;7.318;2022-08-21T02:58:22;8.50;;;4.57;;
43124;SDS011;49182;50.788;7.318;2022-08-21T03:00:51;12.23;;;4.78;;
43124;SDS011;49182;50.788;7.318;2022-08-21T03:03:18;12.88;;;4.53;;
43124;SDS011;49182;50.788;7.318;2022-08-21T03:05:46;7.28;;;4.50;;
43124;SDS011;49182;50.788;7.318;2022-08-21T03:08:14;9.20;;;4.57;;
43124;SDS011;49182;50.788;7.318;2022-08-21T03:10:42;10.45;;;4.97;;
43124;SDS011;49182;50.788;7.318;2022-08-21T03:13:11;7.72;;;4.32;;
43124;SDS011;49182;50.788;7.318;2022-08-21T03:15:38;9.50;;;4.50;;
43124;SDS011;49182;50.788;7.318;2022-08-21T03:18:05;10.50;;;4.93;;
43124;SDS011;49182;50.788;7.318;2022-08-21T03:20:34;9.73;;;4.47;;
43124;SDS011;49182;50.788;7.318;2022-08-21T03:23:02;10.18;;;5.07;;
43124;SDS011;49182;50.788;7.318;2022-08-21T03:25:40;8.45;;;5.00;;
43124;SDS011;49182;50.788;7.318;2022-08-21T03:28:08;8.80;;;4.53;;
43124;SDS011;49182;50.788;7.318;2022-08-21T03:30:38;6.55;;;3.80;;
43124;SDS011;49182;50.788;7.318;2022-08-21T03:33:05;6.85;;;4.03;;
43124;SDS011;49182;50.788;7.318;2022-08-21T03:35:33;9.05;;;4.30;;
43124;SDS011;49182;50.788;7.318;2022-08-21T03:38:00;8.20;;;4.38;;
43124;SDS011;49182;50.788;7.318;2022-08-21T03:40:26;11.40;;;4.90;;
43124;SDS011;49182;50.788;7.318;2022-08-21T03:42:53;8.52;;;4.43;;
43124;SDS011;49182;50.788;7.318;2022-08-21T03:45:20;9.07;;;4.90;;
43124;SDS011;49182;50.788;7.318;2022-08-21T03:47:51;8.18;;;3.97;;
43124;SDS011;49182;50.788;7.318;2022-08-21T03:52:46;9.60;;;4.65;;
43124;SDS011;49182;50.788;7.318;2022-08-21T03:55:13;9.80;;;4.50;;
43124;SDS011;49182;50.788;7.318;2022-08-21T03:57:40;7.53;;;4.65;;
43124;SDS011;49182;50.788;7.318;2022-08-21T04:00:07;11.13;;;4.22;;
43124;SDS011;49182;50.788;7.318;2022-08-21T04:02:35;8.43;;;5.15;;
43124;SDS011;49182;50.788;7.318;2022-08-21T04:05:02;8.15;;;4.45;;
43124;SDS011;49182;50.788;7.318;2022-08-21T04:07:29;8.43;;;4.63;;
43124;SDS011;49182;50.788;7.318;2022-08-21T04:09:57;9.10;;;4.28;;
43124;SDS011;49182;50.788;7.318;2022-08-21T04:12:23;7.75;;;4.10;;
43124;SDS011;49182;50.788;7.318;2022-08-21T04:14:50;7.55;;;4.32;;
43124;SDS011;49182;50.788;7.318;2022-08-21T04:17:17;7.35;;;4.53;;
43124;SDS011;49182;50.788;7.318;2022-08-21T04:19:44;7.90;;;4.72;;
43124;SDS011;49182;50.788;7.318;2022-08-21T04:22:14;8.32;;;4.63;;
43124;SDS011;49182;50.788;7.318;2022-08-21T04:24:41;6.80;;;4.30;;
43124;SDS011;49182;50.788;7.318;2022-08-21T04:27:09;7.10;;;4.20;;
43124;SDS011;49182;50.788;7.318;2022-08-21T04:29:36;8.70;;;4.70;;
43124;SDS011;49182;50.788;7.318;2022-08-21T04:32:05;7.13;;;4.07;;
43124;SDS011;49182;50.788;7.318;2022-08-21T04:34:32;6.75;;;4.10;;
43124;SDS011;49182;50.788;7.318;2022-08-21T04:36:59;6.75;;;4.38;;
43124;SDS011;49182;50.788;7.318;2022-08-21T04:39:25;8.07;;;4.97;;
43124;SDS011;49182;50.788;7.318;2022-08-21T04:41:55;9.88;;;4.32;;
43124;SDS011;49182;50.788;7.318;2022-08-21T04:44:23;7.63;;;4.32;;
43124;SDS011;49182;50.788;7.318;2022-08-21T04:46:49;6.72;;;3.97;;
43124;SDS011;49182;50.788;7.318;2022-08-21T04:49:16;7.45;;;4.57;;
43124;SDS011;49182;50.788;7.318;2022-08-21T04:51:44;9.68;;;4.93;;
43124;SDS011;49182;50.788;7.318;2022-08-21T04:54:12;9.05;;;4.63;;
43124;SDS011;49182;50.788;7.318;2022-08-21T04:56:44;8.32;;;4.30;;
43124;SDS011;49182;50.788;7.318;2022-08-21T04:59:13;9.70;;;4.53;;
43124;SDS011;49182;50.788;7.318;2022-08-21T05:01:45;8.65;;;4.22;;
43124;SDS011;49182;50.788;7.318;2022-08-21T05:04:12;7.53;;;3.95;;
43124;SDS011;49182;50.788;7.318;2022-08-21T05:06:43;7.07;;;3.92;;
43124;SDS011;49182;50.788;7.318;2022-08-21T05:09:13;7.32;;;4.45;;
43124;SDS011;49182;50.788;7.318;2022-08-21T05:11:42;8.88;;;4.60;;
43124;SDS011;49182;50.788;7.318;2022-08-21T05:14:09;9.05;;;4.57;;
43124;SDS011;49182;50.788;7.318;2022-08-21T05:16:36;8.25;;;4.53;;
43124;SDS011;49182;50.788;7.318;2022-08-21T05:19:05;7.72;;;4.55;;
43124;SDS011;49182;50.788;7.318;2022-08-21T05:21:32;9.18;;;4.85;;
43124;SDS011;49182;50.788;7.318;2022-08-21T05:23:59;8.88;;;4.40;;
43124;SDS011;49182;50.788;7.318;2022-08-21T05:26:26;10.75;;;5.03;;
43124;SDS011;49182;50.788;7.318;2022-08-21T05:28:53;8.95;;;4.45;;
43124;SDS011;49182;50.788;7.318;2022-08-21T05:31:21;9.60;;;4.45;;
43124;SDS011;49182;50.788;7.318;2022-08-21T05:33:48;9.88;;;4.65;;
43124;SDS011;49182;50.788;7.318;2022-08-21T05:36:18;8.13;;;4.68;;
43124;SDS011;49182;50.788;7.318;2022-08-21T05:38:45;11.23;;;5.28;;
43124;SDS011;49182;50.788;7.318;2022-08-21T05:41:12;10.00;;;5.18;;
43124;SDS011;49182;50.788;7.318;2022-08-21T05:43:39;11.10;;;5.70;;
43124;SDS011;49182;50.788;7.318;2022-08-21T05:46:06;9.38;;;5.75;;
43124;SDS011;49182;50.788;7.318;2022-08-21T05:48:33;9.07;;;5.50;;
43124;SDS011;49182;50.788;7.318;2022-08-21T05:51:03;10.05;;;5.22;;
43124;SDS011;49182;50.788;7.318;2022-08-21T05:53:33;8.68;;;5.15;;
43124;SDS011;49182;50.788;7.318;2022-08-21T05:55:59;9.85;;;5.88;;
43124;SDS011;49182;50.788;7.318;2022-08-21T05:58:26;9.68;;;5.32;;
43124;SDS011;49182;50.788;7.318;2022-08-21T06:00:52;12.60;;;5.85;;
43124;SDS011;49182;50.788;7.318;2022-08-21T06:03:20;9.27;;;5.57;;
43124;SDS011;49182;50.788;7.318;2022-08-21T06:05:49;10.45;;;5.13;;
43124;SDS011;49182;50.788;7.318;2022-08-21T06:08:17;9.15;;;5.07;;
43124;SDS011;49182;50.788;7.318;2022-08-21T06:10:46;10.40;;;4.95;;
43124;SDS011;49182;50.788;7.318;2022-08-21T06:13:14;10.27;;;5.70;;
43124;SDS011;49182;50.788;7.318;2022-08-21T06:15:42;9.13;;;5.47;;
43124;SDS011;49182;50.788;7.318;2022-08-21T06:18:10;9.82;;;5.30;;
43124;SDS011;49182;50.788;7.318;2022-08-21T06:20:37;9.63;;;5.22;;
43124;SDS011;49182;50.788;7.318;2022-08-21T06:23:04;9.50;;;5.28;;
43124;SDS011;49182;50.788;7.318;2022-08-21T06:25:31;11.10;;;5.28;;
43124;SDS011;49182;50.788;7.318;2022-08-21T06:28:03;10.70;;;5.68;;
43124;SDS011;49182;50.788;7.318;2022-08-21T06:30:31;11.05;;;5.80;;
43124;SDS011;49182;50.788;7.318;2022-08-21T06:32:58;10.73;;;5.45;;
43124;SDS011;49182;50.788;7.318;2022-08-21T06:35:26;9.25;;;5.30;;
43124;SDS011;49182;50.788;7.318;2022-08-21T06:37:52;11.60;;;6.28;;
43124;SDS011;49182;50.788;7.318;2022-08-21T06:40:19;13.93;;;6.03;;
43124;SDS011;49182;50.788;7.318;2022-08-21T06:42:46;8.75;;;5.47;;
43124;SDS011;49182;50.788;7.318;2022-08-21T06:45:15;11.32;;;5.70;;
43124;SDS011;49182;50.788;7.318;2022-08-21T06:47:42;9.10;;;5.63;;
43124;SDS011;49182;50.788;7.318;2022-08-21T06:50:08;9.02;;;5.95;;
43124;SDS011;49182;50.788;7.318;2022-08-21T06:52:35;9.55;;;5.95;;
43124;SDS011;49182;50.788;7.318;2022-08-21T06:55:03;10.00;;;5.70;;
43124;SDS011;49182;50.788;7.318;2022-08-21T06:57:32;11.98;;;6.20;;
43124;SDS011;49182;50.788;7.318;2022-08-21T06:59:59;12.02;;;5.57;;
43124;SDS011;49182;50.788;7.318;2022-08-21T07:02:27;10.93;;;5.57;;
43124;SDS011;49182;50.788;7.318;2022-08-21T07:04:53;12.65;;;5.50;;
43124;SDS011;49182;50.788;7.318;2022-08-21T07:07:20;10.55;;;5.78;;
43124;SDS011;49182;50.788;7.318;2022-08-21T07:09:46;11.02;;;5.88;;
43124;SDS011;49182;50.788;7.318;2022-08-21T07:12:13;11.20;;;5.45;;
43124;SDS011;49182;50.788;7.318;2022-08-21T07:14:40;10.60;;;5.72;;
43124;SDS011;49182;50.788;7.318;2022-08-21T07:17:06;9.80;;;5.72;;
43124;SDS011;49182;50.788;7.318;2022-08-21T07:19:35;9.30;;;6.05;;
43124;SDS011;49182;50.788;7.318;2022-08-21T07:22:01;9.63;;;5.50;;
43124;SDS011;49182;50.788;7.318;2022-08-21T07:24:28;10.70;;;5.88;;
43124;SDS011;49182;50.788;7.318;2022-08-21T07:26:55;13.00;;;6.35;;
43124;SDS011;49182;50.788;7.318;2022-08-21T07:29:22;12.40;;;5.75;;
43124;SDS011;49182;50.788;7.318;2022-08-21T07:31:48;8.82;;;5.13;;
43124;SDS011;49182;50.788;7.318;2022-08-21T07:34:16;11.75;;;5.90;;
43124;SDS011;49182;50.788;7.318;2022-08-21T07:36:44;9.15;;;5.15;;
43124;SDS011;49182;50.788;7.318;2022-08-21T07:39:11;11.07;;;6.18;;
43124;SDS011;49182;50.788;7.318;2022-08-21T07:41:37;12.93;;;5.75;;
43124;SDS011;49182;50.788;7.318;2022-08-21T07:44:04;10.60;;;5.75;;
43124;SDS011;49182;50.788;7.318;2022-08-21T07:46:31;11.32;;;5.72;;
43124;SDS011;49182;50.788;7.318;2022-08-21T07:48:58;11.90;;;6.57;;
43124;SDS011;49182;50.788;7.318;2022-08-21T07:51:25;16.52;;;7.97;;
43124;SDS011;49182;50.788;7.318;2022-08-21T07:53:56;17.65;;;8.48;;
43124;SDS011;49182;50.788;7.318;2022-08-21T07:56:24;16.98;;;7.80;;
43124;SDS011;49182;50.788;7.318;2022-08-21T07:58:50;14.82;;;6.65;;
43124;SDS011;49182;50.788;7.318;2022-08-21T08:01:17;13.98;;;6.68;;
43124;SDS011;49182;50.788;7.318;2022-08-21T08:03:45;15.07;;;6.97;;
43124;SDS011;49182;50.788;7.318;2022-08-21T08:06:12;12.32;;;6.50;;
43124;SDS011;49182;50.788;7.318;2022-08-21T08:08:39;11.68;;;6.28;;
43124;SDS011;49182;50.788;7.318;2022-08-21T08:11:08;11.68;;;6.20;;
43124;SDS011;49182;50.788;7.318;2022-08-21T08:13:37;12.38;;;5.30;;
43124;SDS011;49182;50.788;7.318;2022-08-21T08:16:05;13.07;;;5.38;;
43124;SDS011;49182;50.788;7.318;2022-08-21T08:18:32;13.18;;;5.30;;
43124;SDS011;49182;50.788;7.318;2022-08-21T08:20:59;10.10;;;4.93;;
43124;SDS011;49182;50.788;7.318;2022-08-21T08:23:25;10.10;;;5.25;;
43124;SDS011;49182;50.788;7.318;2022-08-21T08:25:52;12.65;;;5.25;;
43124;SDS011;49182;50.788;7.318;2022-08-21T08:28:20;11.75;;;5.25;;
43124;SDS011;49182;50.788;7.318;2022-08-21T08:30:46;9.70;;;4.55;;
43124;SDS011;49182;50.788;7.318;2022-08-21T08:33:14;13.60;;;4.50;;
43124;SDS011;49182;50.788;7.318;2022-08-21T08:35:41;15.27;;;5.50;;
43124;SDS011;49182;50.788;7.318;2022-08-21T08:38:08;11.73;;;4.70;;
43124;SDS011;49182;50.788;7.318;2022-08-21T08:40:36;14.27;;;5.20;;
43124;SDS011;49182;50.788;7.318;2022-08-21T08:43:08;11.43;;;4.70;;
43124;SDS011;49182;50.788;7.318;2022-08-21T08:45:42;12.57;;;5.75;;
43124;SDS011;49182;50.788;7.318;2022-08-21T08:48:13;11.07;;;4.28;;
43124;SDS011;49182;50.788;7.318;2022-08-21T08:50:46;10.95;;;4.25;;
43124;SDS011;49182;50.788;7.318;2022-08-21T08:53:16;12.18;;;3.72;;
43124;SDS011;49182;50.788;7.318;2022-08-21T08:55:46;10.32;;;4.22;;
43124;SDS011;49182;50.788;7.318;2022-08-21T08:58:16;11.13;;;4.15;;
43124;SDS011;49182;50.788;7.318;2022-08-21T09:00:49;15.18;;;4.35;;
43124;SDS011;49182;50.788;7.318;2022-08-21T09:03:16;13.05;;;4.20;;
43124;SDS011;49182;50.788;7.318;2022-08-21T09:05:45;9.50;;;3.50;;
43124;SDS011;49182;50.788;7.318;2022-08-21T09:08:15;9.23;;;3.67;;
43124;SDS011;49182;50.788;7.318;2022-08-21T09:10:52;10.27;;;3.33;;
43124;SDS011;49182;50.788;7.318;2022-08-21T09:13:30;12.60;;;3.42;;
43124;SDS011;49182;50.788;7.318;2022-08-21T09:16:08;9.57;;;3.60;;
43124;SDS011;49182;50.788;7.318;2022-08-21T09:18:43;8.90;;;3.75;;
43124;SDS011;49182;50.788;7.318;2022-08-21T09:21:22;11.57;;;3.67;;
43124;SDS011;49182;50.788;7.318;2022-08-21T09:23:55;7.40;;;2.70;;
43124;SDS011;49182;50.788;7.318;2022-08-21T09:26:27;15.35;;;3.95;;
43124;SDS011;49182;50.788;7.318;2022-08-21T09:28:58;14.02;;;3.35;;
43124;SDS011;49182;50.788;7.318;2022-08-21T09:31:27;10.52;;;2.90;;
43124;SDS011;49182;50.788;7.318;2022-08-21T09:33:57;15.25;;;4.38;;
43124;SDS011;49182;50.788;7.318;2022-08-21T09:36:25;9.10;;;3.03;;
43124;SDS011;49182;50.788;7.318;2022-08-21T09:38:59;6.60;;;2.47;;
43124;SDS011;49182;50.788;7.318;2022-08-21T09:41:26;7.40;;;2.47;;
43124;SDS011;49182;50.788;7.318;2022-08-21T09:43:55;7.45;;;2.17;;
43124;SDS011;49182;50.788;7.318;2022-08-21T09:46:22;6.53;;;1.98;;
43124;SDS011;49182;50.788;7.318;2022-08-21T09:48:52;7.50;;;2.35;;
43124;SDS011;49182;50.788;7.318;2022-08-21T09:51:21;6.50;;;2.17;;
43124;SDS011;49182;50.788;7.318;2022-08-21T09:53:51;7.65;;;2.40;;
43124;SDS011;49182;50.788;7.318;2022-08-21T09:56:21;7.80;;;2.70;;
43124;SDS011;49182;50.788;7.318;2022-08-21T09:58:53;11.27;;;2.20;;
43124;SDS011;49182;50.788;7.318;2022-08-21T10:01:20;9.52;;;2.50;;
43124;SDS011;49182;50.788;7.318;2022-08-21T10:04:01;6.85;;;2.50;;
43124;SDS011;49182;50.788;7.318;2022-08-21T10:06:30;9.73;;;2.33;;
43124;SDS011;49182;50.788;7.318;2022-08-21T10:09:03;6.95;;;2.17;;
43124;SDS011;49182;50.788;7.318;2022-08-21T10:11:31;6.00;;;2.10;;
43124;SDS011;49182;50.788;7.318;2022-08-21T10:14:01;5.55;;;2.08;;
43124;SDS011;49182;50.788;7.318;2022-08-21T10:16:41;10.98;;;2.53;;
43124;SDS011;49182;50.788;7.318;2022-08-21T10:19:21;8.57;;;2.05;;
43124;SDS011;49182;50.788;7.318;2022-08-21T10:21:58;10.90;;;3.30;;
43124;SDS011;49182;50.788;7.318;2022-08-21T10:24:29;10.57;;;2.40;;
43124;SDS011;49182;50.788;7.318;2022-08-21T10:27:02;6.60;;;2.53;;
43124;SDS011;49182;50.788;7.318;2022-08-21T10:29:42;7.05;;;2.10;;
43124;SDS011;49182;50.788;7.318;2022-08-21T10:32:23;10.85;;;2.30;;
43124;SDS011;49182;50.788;7.318;2022-08-21T10:34:59;8.27;;;2.05;;
43124;SDS011;49182;50.788;7.318;2022-08-21T10:37:36;5.95;;;1.67;;
43124;SDS011;49182;50.788;7.318;2022-08-21T10:40:14;5.95;;;2.00;;
43124;SDS011;49182;50.788;7.318;2022-08-21T10:42:49;7.82;;;1.85;;
43124;SDS011;49182;50.788;7.318;2022-08-21T10:45:33;6.82;;;1.75;;
43124;SDS011;49182;50.788;7.318;2022-08-21T10:48:10;5.22;;;1.77;;
43124;SDS011;49182;50.788;7.318;2022-08-21T10:50:45;7.32;;;2.22;;
43124;SDS011;49182;50.788;7.318;2022-08-21T10:53:26;5.25;;;1.75;;
43124;SDS011;49182;50.788;7.318;2022-08-21T10:56:05;5.50;;;1.67;;
43124;SDS011;49182;50.788;7.318;2022-08-21T10:58:45;10.15;;;1.70;;
43124;SDS011;49182;50.788;7.318;2022-08-21T11:01:17;8.90;;;1.67;;
43124;SDS011;49182;50.788;7.318;2022-08-21T11:03:50;6.70;;;1.40;;
43124;SDS011;49182;50.788;7.318;2022-08-21T11:06:33;5.10;;;1.88;;
43124;SDS011;49182;50.788;7.318;2022-08-21T11:09:11;7.75;;;1.90;;
43124;SDS011;49182;50.788;7.318;2022-08-21T11:11:41;6.38;;;1.70;;
43124;SDS011;49182;50.788;7.318;2022-08-21T11:14:31;3.40;;;1.05;;
43124;SDS011;49182;50.788;7.318;2022-08-21T11:17:16;6.57;;;1.40;;
43124;SDS011;49182;50.788;7.318;2022-08-21T11:19:48;4.93;;;1.20;;
43124;SDS011;49182;50.788;7.318;2022-08-21T11:22:22;4.03;;;1.33;;
43124;SDS011;49182;50.788;7.318;2022-08-21T11:24:54;6.25;;;1.38;;
43124;SDS011;49182;50.788;7.318;2022-08-21T11:27:28;3.72;;;1.30;;
43124;SDS011;49182;50.788;7.318;2022-08-21T11:29:59;5.15;;;1.27;;
43124;SDS011;49182;50.788;7.318;2022-08-21T11:32:40;8.23;;;1.33;;
43124;SDS011;49182;50.788;7.318;2022-08-21T11:35:20;5.82;;;1.23;;
43124;SDS011;49182;50.788;7.318;2022-08-21T11:38:01;4.07;;;1.38;;
43124;SDS011;49182;50.788;7.318;2022-08-21T11:40:44;5.97;;;1.50;;
43124;SDS011;49182;50.788;7.318;2022-08-21T11:43:20;5.78;;;1.60;;
43124;SDS011;49182;50.788;7.318;2022-08-21T11:45:54;8.55;;;2.05;;
43124;SDS011;49182;50.788;7.318;2022-08-21T11:48:28;5.53;;;1.35;;
43124;SDS011;49182;50.788;7.318;2022-08-21T11:51:04;5.88;;;1.58;;
43124;SDS011;49182;50.788;7.318;2022-08-21T11:53:38;5.15;;;1.50;;
43124;SDS011;49182;50.788;7.318;2022-08-21T11:56:19;6.82;;;1.27;;
43124;SDS011;49182;50.788;7.318;2022-08-21T11:58:52;7.18;;;1.33;;
43124;SDS011;49182;50.788;7.318;2022-08-21T12:01:25;5.72;;;1.80;;
43124;SDS011;49182;50.788;7.318;2022-08-21T12:03:58;4.93;;;1.23;;
43124;SDS011;49182;50.788;7.318;2022-08-21T12:06:29;4.97;;;1.30;;
43124;SDS011;49182;50.788;7.318;2022-08-21T12:08:59;7.35;;;2.85;;
43124;SDS011;49182;50.788;7.318;2022-08-21T12:11:27;7.72;;;3.80;;
43124;SDS011;49182;50.788;7.318;2022-08-21T12:13:57;9.40;;;3.38;;
43124;SDS011;49182;50.788;7.318;2022-08-21T12:16:30;3.40;;;1.10;;
43124;SDS011;49182;50.788;7.318;2022-08-21T12:19:05;7.55;;;1.25;;
43124;SDS011;49182;50.788;7.318;2022-08-21T12:21:34;4.55;;;1.63;;
43124;SDS011;49182;50.788;7.318;2022-08-21T12:24:17;6.05;;;1.10;;
43124;SDS011;49182;50.788;7.318;2022-08-21T12:26:58;5.18;;;1.10;;
43124;SDS011;49182;50.788;7.318;2022-08-21T12:29:28;4.72;;;1.27;;
43124;SDS011;49182;50.788;7.318;2022-08-21T12:31:58;3.25;;;1.10;;
43124;SDS011;49182;50.788;7.318;2022-08-21T12:34:33;16.13;;;1.60;;
43124;SDS011;49182;50.788;7.318;2022-08-21T12:37:04;5.43;;;1.10;;
43124;SDS011;49182;50.788;7.318;2022-08-21T12:39:43;5.68;;;1.23;;
43124;SDS011;49182;50.788;7.318;2022-08-21T12:42:15;6.03;;;1.67;;
43124;SDS011;49182;50.788;7.318;2022-08-21T12:44:45;4.63;;;1.20;;
43124;SDS011;49182;50.788;7.318;2022-08-21T12:47:17;4.43;;;1.00;;
43124;SDS011;49182;50.788;7.318;2022-08-21T12:49:54;4.28;;;1.00;;
43124;SDS011;49182;50.788;7.318;2022-08-21T12:52:29;3.35;;;1.08;;
43124;SDS011;49182;50.788;7.318;2022-08-21T12:55:06;3.63;;;1.23;;
43124;SDS011;49182;50.788;7.318;2022-08-21T12:57:39;5.47;;;1.48;;
43124;SDS011;49182;50.788;7.318;2022-08-21T13:00:08;4.33;;;0.93;;
43124;SDS011;49182;50.788;7.318;2022-08-21T13:02:38;5.57;;;1.33;;
43124;SDS011;49182;50.788;7.318;2022-08-21T13:05:11;3.95;;;0.98;;
43124;SDS011;49182;50.788;7.318;2022-08-21T13:07:42;3.35;;;0.98;;
43124;SDS011;49182;50.788;7.318;2022-08-21T13:10:16;3.70;;;1.02;;
43124;SDS011;49182;50.788;7.318;2022-08-21T13:12:46;4.18;;;1.10;;
43124;SDS011;49182;50.788;7.318;2022-08-21T13:15:13;4.68;;;1.20;;
43124;SDS011;49182;50.788;7.318;2022-08-21T13:17:42;4.05;;;1.20;;
43124;SDS011;49182;50.788;7.318;2022-08-21T13:20:18;3.05;;;1.05;;
43124;SDS011;49182;50.788;7.318;2022-08-21T13:22:47;3.85;;;0.95;;
43124;SDS011;49182;50.788;7.318;2022-08-21T13:25:16;4.22;;;1.00;;
43124;SDS011;49182;50.788;7.318;2022-08-21T13:27:44;3.00;;;1.10;;
43124;SDS011;49182;50.788;7.318;2022-08-21T13:30:24;2.95;;;1.00;;
43124;SDS011;49182;50.788;7.318;2022-08-21T13:32:51;4.28;;;1.10;;
43124;SDS011;49182;50.788;7.318;2022-08-21T13:35:23;3.53;;;0.90;;
43124;SDS011;49182;50.788;7.318;2022-08-21T13:37:52;4.35;;;1.08;;
43124;SDS011;49182;50.788;7.318;2022-08-21T13:40:23;4.53;;;1.15;;
43124;SDS011;49182;50.788;7.318;2022-08-21T13:42:52;4.03;;;1.00;;
43124;SDS011;49182;50.788;7.318;2022-08-21T13:45:22;4.82;;;1.08;;
43124;SDS011;49182;50.788;7.318;2022-08-21T13:47:51;2.92;;;0.85;;
43124;SDS011;49182;50.788;7.318;2022-08-21T13:50:20;3.92;;;1.05;;
43124;SDS011;49182;50.788;7.318;2022-08-21T13:52:54;3.17;;;1.02;;
43124;SDS011;49182;50.788;7.318;2022-08-21T13:55:25;4.38;;;1.52;;
43124;SDS011;49182;50.788;7.318;2022-08-21T13:58:01;3.20;;;1.13;;
43124;SDS011;49182;50.788;7.318;2022-08-21T14:00:29;5.05;;;1.27;;
43124;SDS011;49182;50.788;7.318;2022-08-21T14:03:00;5.65;;;1.15;;
43124;SDS011;49182;50.788;7.318;2022-08-21T14:05:31;5.38;;;1.20;;
43124;SDS011;49182;50.788;7.318;2022-08-21T14:08:01;4.28;;;0.90;;
43124;SDS011;49182;50.788;7.318;2022-08-21T14:10:34;5.72;;;1.20;;
43124;SDS011;49182;50.788;7.318;2022-08-21T14:13:03;3.22;;;1.02;;
43124;SDS011;49182;50.788;7.318;2022-08-21T14:15:33;3.50;;;0.93;;
43124;SDS011;49182;50.788;7.318;2022-08-21T14:18:08;2.83;;;0.90;;
43124;SDS011;49182;50.788;7.318;2022-08-21T14:20:39;5.50;;;1.20;;
43124;SDS011;49182;50.788;7.318;2022-08-21T14:23:06;6.43;;;1.38;;
43124;SDS011;49182;50.788;7.318;2022-08-21T14:25:38;5.30;;;0.90;;
43124;SDS011;49182;50.788;7.318;2022-08-21T14:28:15;4.38;;;1.10;;
43124;SDS011;49182;50.788;7.318;2022-08-21T14:30:53;5.32;;;1.17;;
43124;SDS011;49182;50.788;7.318;2022-08-21T14:33:23;3.78;;;1.23;;
43124;SDS011;49182;50.788;7.318;2022-08-21T14:35:53;4.57;;;1.30;;
43124;SDS011;49182;50.788;7.318;2022-08-21T14:38:20;5.57;;;1.00;;
43124;SDS011;49182;50.788;7.318;2022-08-21T14:40:51;3.72;;;1.00;;
43124;SDS011;49182;50.788;7.318;2022-08-21T14:43:19;4.85;;;1.10;;
43124;SDS011;49182;50.788;7.318;2022-08-21T14:45:47;3.70;;;1.00;;
43124;SDS011;49182;50.788;7.318;2022-08-21T14:48:14;2.88;;;0.85;;
43124;SDS011;49182;50.788;7.318;2022-08-21T14:50:40;5.93;;;1.25;;
43124;SDS011;49182;50.788;7.318;2022-08-21T14:53:07;4.63;;;1.00;;
43124;SDS011;49182;50.788;7.318;2022-08-21T14:55:36;3.80;;;1.02;;
43124;SDS011;49182;50.788;7.318;2022-08-21T14:58:07;5.07;;;1.20;;
43124;SDS011;49182;50.788;7.318;2022-08-21T15:00:34;4.22;;;0.98;;
43124;SDS011;49182;50.788;7.318;2022-08-21T15:03:01;4.57;;;0.88;;
43124;SDS011;49182;50.788;7.318;2022-08-21T15:05:28;3.95;;;0.80;;